Latest Weather Observations for Robe Airport

IDS60801

Issued at 7:35 am CST Wednesday 24 September 2014 (issued every 30 minutes, with the page automatically refreshed every 10 minutes)

About weather observations | Map of weather stations | Latest weather observations for SA | Other Formats
Station Details ID: 026105 Name: ROBE AIRFIELD Lat: -37.18 Lon: 139.81 Height: 3.0 m
Data from the previous 72 hours. | See also: Recent months at Robe Airport
Date/Time
CST
Temp
°C
App
Temp
°C
Dew
Point
Rel
Hum
%
Delta-T
°C
Wind Press
QNH
hPa
Press
MSL
hPa
Rain
since 9 am
mm
Dir
 
Spd
km/h
Gust
km/h
Spd
kts
Gust
kts
24/07:30am 15.2 14.9 13.4 89 1.0 N 7 11 4 6 1014.6 1014.6 4.4
24/07:00am 12.7 12.4 11.4 92 0.7 NNE 4 6 2 3 1014.5 1014.5 4.4
24/06:30am 12.3 11.8 10.9 91 0.7 NNE 4 7 2 4 1014.6 1014.6 4.4
24/06:00am 13.3 12.5 11.7 90 0.9 NE 7 11 4 6 1014.4 1014.4 4.4
24/05:30am 12.9 12.0 11.5 91 0.7 N 7 11 4 6 1014.4 1014.4 4.4
24/05:00am 13.2 12.4 11.6 90 0.9 N 7 9 4 5 1014.3 1014.3 4.4
24/04:30am 13.8 12.4 12.2 90 0.9 NNE 11 13 6 7 1014.2 1014.2 4.4
24/04:00am 14.5 12.4 12.4 87 1.1 NNE 15 19 8 10 1014.2 1014.2 4.4
24/03:30am 14.4 10.6 12.3 87 1.1 NNE 24 32 13 17 1014.2 1014.2 4.4
24/03:00am 14.5 11.7 12.5 88 1.1 NNE 19 24 10 13 1014.6 1014.6 4.4
24/02:30am 14.4 12.7 12.6 89 1.0 NNE 13 19 7 10 1014.9 1014.9 4.4
24/02:00am 14.4 12.8 12.8 90 0.9 NE 13 15 7 8 1015.1 1015.1 4.4
24/01:30am 14.6 14.1 12.8 89 1.0 NE 7 9 4 5 1015.5 1015.5 4.4
24/01:00am 14.7 13.6 13.1 90 0.9 NE 11 15 6 8 1016.0 1016.0 4.4
24/12:30am 15.2 13.3 12.9 86 1.3 NE 15 17 8 9 1016.2 1016.2 4.4
24/12:00am 15.4 12.5 12.3 82 1.7 N 19 26 10 14 1016.4 1016.4 4.0
 
Date/Time
CST
Temp
°C
App
Temp
°C
Dew
Point
Rel
Hum
%
Delta-T
°C
Wind Press
QNH
hPa
Press
MSL
hPa
Rain
since 9 am
mm
Dir
 
Spd
km/h
Gust
km/h
Spd
kts
Gust
kts
23/11:45pm 17.2 12.2 11.0 67 3.3 NNW 28 48 15 26 1016.4 1016.4 3.8
23/11:30pm 16.5 13.9 11.9 74 2.5 NNW 17 26 9 14 1016.6 1016.6 3.0
23/11:00pm 14.9 14.3 13.6 92 0.7 W 9 13 5 7 1017.4 1017.4 2.8
23/10:30pm 14.7 15.1 13.6 93 0.6 W 4 15 2 8 1017.5 1017.5 2.4
23/10:00pm 14.8 15.1 13.3 91 0.8 NNW 4 9 2 5 1017.7 1017.7 2.2
23/09:30pm 15.1 14.7 13.0 87 1.2 SE 7 11 4 6 1017.4 1017.4 2.0
23/09:00pm 15.1 13.7 13.5 90 0.9 ESE 13 17 7 9 1017.5 1017.5 2.0
23/08:30pm 14.9 14.8 13.4 91 0.8 SSE 6 9 3 5 1018.2 1018.2 2.0
23/08:00pm 15.1 15.4 13.3 89 1.0 E 4 7 2 4 1018.5 1018.5 2.0
23/07:30pm 16.4 15.2 12.9 80 1.9 ESE 11 17 6 9 1018.3 1018.3 0.4
23/07:00pm 16.3 14.8 13.0 81 1.8 SE 13 19 7 10 1017.3 1017.3 0.4
23/06:30pm 15.7 13.5 12.1 79 2.0 SSE 15 20 8 11 1017.4 1017.4 0.4
23/06:00pm 16.5 14.9 11.6 73 2.7 W 11 17 6 9 1018.2 1018.2 0.2
23/05:30pm 18.9 17.6 9.9 56 4.8 SW 7 13 4 7 1017.3 1017.3 0.0
23/05:00pm 21.1 19.8 11.2 53 5.5 S 9 11 5 6 1017.1 1017.1 0.0
23/04:30pm 21.6 20.9 11.9 54 5.4 SSE 7 11 4 6 1017.1 1017.1 0.0
23/04:00pm 21.5 20.3 10.3 49 6.1 SSE 7 9 4 5 1017.5 1017.5 0.0
23/03:30pm 21.7 20.8 10.5 49 6.1 SSW 6 9 3 5 1017.9 1017.9 0.0
23/03:00pm 22.9 21.7 9.7 43 7.1 W 6 13 3 7 1018.2 1018.2 0.0
23/02:30pm 23.6 22.0 10.3 43 7.3 NW 9 17 5 9 1018.5 1018.5 0.0
23/02:00pm 24.2 22.6 11.5 45 7.2 WNW 11 17 6 9 1018.8 1018.8 0.0
23/01:30pm 23.2 20.1 10.3 44 7.1 WNW 17 24 9 13 1019.3 1019.3 0.0
23/01:00pm 22.6 18.9 10.1 45 6.8 NW 20 26 11 14 1019.7 1019.7 0.0
23/12:30pm 22.3 18.6 10.1 46 6.6 NW 20 26 11 14 1020.2 1020.2 0.0
23/12:00pm 22.5 18.6 10.9 48 6.4 NW 22 32 12 17 1020.7 1020.7 0.0
23/11:30am 22.9 18.8 11.3 48 6.5 NNW 24 35 13 19 1021.1 1021.1 0.0
23/11:00am 22.8 18.2 10.9 47 6.6 NNW 26 35 14 19 1021.5 1021.5 0.0
23/10:30am 22.9 18.2 10.7 46 6.7 N 26 33 14 18 1021.6 1021.6 0.0
23/10:00am 22.4 16.7 9.9 45 6.8 N 30 39 16 21 1021.9 1021.9 0.0
23/09:30am 21.5 16.5 9.4 46 6.4 N 26 41 14 22 1022.1 1022.1 0.0
23/09:00am 20.3 15.6 7.7 44 6.5 N 22 30 12 16 1022.3 1022.3 0.0
23/08:30am 17.5 14.1 5.8 46 5.7 NNE 13 22 7 12 1022.4 1022.4 0.0
23/08:00am 15.3 11.5 4.1 47 5.2 NNE 13 20 7 11 1022.5 1022.5 0.0
23/07:30am 12.9 9.6 2.5 49 4.5 NNE 9 15 5 8 1022.4 1022.4 0.0
23/07:00am 11.5 7.3 1.5 50 4.2 NNE 13 19 7 10 1022.3 1022.3 0.0
23/06:30am 10.4 5.7 1.0 52 3.9 NNE 15 19 8 10 1022.2 1022.2 0.0
23/06:00am 10.2 5.9 1.1 53 3.7 NNE 13 19 7 10 1021.9 1021.9 0.0
23/05:30am 9.8 5.9 1.2 55 3.5 NNE 11 17 6 9 1022.0 1022.0 0.0
23/05:00am 10.2 5.6 1.3 54 3.7 NNE 15 20 8 11 1021.8 1021.8 0.0
23/04:30am 10.3 5.4 1.9 56 3.5 NNE 17 20 9 11 1021.7 1021.7 0.0
23/04:00am 9.6 5.1 2.0 59 3.2 NE 15 19 8 10 1021.7 1021.7 0.0
23/03:30am 8.8 4.7 2.4 64 2.7 NE 13 19 7 10 1021.7 1021.7 0.0
23/03:00am 9.1 5.1 2.7 64 2.7 NE 13 15 7 8 1021.7 1021.7 0.0
23/02:30am 8.4 4.7 2.4 66 2.5 NE 11 13 6 7 1021.9 1021.9 0.0
23/02:00am 8.7 5.1 3.1 68 2.4 NE 11 15 6 8 1022.2 1022.2 0.0
23/01:30am 8.8 5.3 3.4 69 2.3 NE 11 15 6 8 1022.5 1022.5 0.0
23/01:00am 9.2 5.5 4.2 71 2.2 NE 13 17 7 9 1022.7 1022.7 0.0
23/12:30am 9.1 5.4 4.7 74 1.9 NE 13 15 7 8 1022.9 1022.9 0.0
23/12:00am 7.7 4.6 3.7 76 1.7 ENE 9 11 5 6 1023.0 1023.0 0.0
 
Date/Time
CST
Temp
°C
App
Temp
°C
Dew
Point
Rel
Hum
%
Delta-T
°C
Wind Press
QNH
hPa
Press
MSL
hPa
Rain
since 9 am
mm
Dir
 
Spd
km/h
Gust
km/h
Spd
kts
Gust
kts
22/11:30pm 8.4 6.0 4.2 75 1.8 ENE 6 7 3 4 1023.1 1023.1 0.0
22/11:00pm 9.3 6.9 4.5 72 2.1 E 6 7 3 4 1023.2 1023.2 0.0
22/10:30pm 9.3 6.7 4.3 71 2.2 E 7 9 4 5 1023.5 1023.5 0.0
22/10:00pm 10.8 8.5 4.7 66 2.7 SE 6 7 3 4 1023.8 1023.8 0.0
22/09:30pm 11.1 8.6 4.6 64 2.9 SE 7 11 4 6 1024.0 1024.0 0.0
22/09:00pm 11.7 8.8 4.7 62 3.2 SE 9 11 5 6 1024.1 1024.1 0.0
22/08:30pm 12.0 10.1 6.7 70 2.5 SE 6 7 3 4 1024.1 1024.1 0.0
22/08:00pm 13.4 11.0 8.5 72 2.4 SSE 11 15 6 8 1024.1 1024.1 0.0
22/07:30pm 13.3 11.2 9.9 80 1.7 SSE 11 15 6 8 1024.0 1024.0 0.0
22/07:00pm 12.1 10.3 7.8 75 2.1 S 7 9 4 5 1023.8 1023.8 0.0
22/06:30pm 14.0 12.4 8.0 67 3.0 SSE 6 7 3 4 1023.6 1023.6 0.0
22/06:00pm 15.6 13.7 6.9 56 4.2 SSW 6 9 3 5 1023.3 1023.3 0.0
22/05:30pm 18.6 16.7 7.7 49 5.5 SW 7 7 4 4 1023.2 1023.2 0.0
22/05:00pm 21.7 19.6 3.9 31 8.6 WSW 4 6 2 3 1023.0 1023.0 0.0
22/04:30pm 21.9 19.4 4.5 32 8.5 WNW 7 11 4 6 1022.8 1022.8 0.0
22/04:00pm 21.8 18.2 4.8 33 8.4 NW 13 17 7 9 1022.8 1022.8 0.0
22/03:30pm 21.6 17.6 4.7 33 8.2 NW 15 19 8 10 1023.0 1023.0 0.0
22/03:00pm 21.7 17.3 4.7 33 8.3 NW 17 20 9 11 1023.1 1023.1 0.0
22/02:30pm 21.9 18.0 7.3 39 7.5 NW 17 24 9 13 1023.3 1023.3 0.0
22/02:00pm 21.8 18.0 7.6 40 7.4 NW 17 24 9 13 1023.4 1023.4 0.0
22/01:30pm 22.5 17.5 3.6 29 9.1 NW 19 26 10 14 1023.7 1023.7 0.0
22/01:00pm 22.1 16.4 2.8 28 9.2 NNW 22 32 12 17 1024.1 1024.1 0.0
22/12:30pm 21.9 15.2 1.6 26 9.3 NNW 26 33 14 18 1024.5 1024.5 0.0
22/12:00pm 22.0 15.9 2.7 28 9.1 N 24 35 13 19 1024.8 1024.8 0.0
22/11:30am 21.5 15.6 3.7 31 8.5 N 24 35 13 19 1025.2 1025.2 0.0
22/11:00am 21.0 14.8 4.1 33 8.2 N 26 35 14 19 1025.7 1025.7 0.0
22/10:30am 19.8 13.5 3.9 35 7.5 N 26 35 14 19 1026.0 1026.0 0.0
22/10:00am 19.1 14.0 6.2 43 6.4 N 22 30 12 16 1026.4 1026.4 0.0
22/09:30am 17.8 12.6 5.7 45 5.9 N 22 28 12 15 1026.7 1026.7 0.0
22/09:00am 16.6 13.5 7.3 54 4.6 N 13 20 7 11 1026.7 1026.7 0.0
22/08:30am 13.7 10.1 6.8 63 3.3 N 15 20 8 11 1026.9 1026.9 0.0
22/08:00am 11.6 8.0 6.7 72 2.3 NNE 15 22 8 12 1026.9 1026.9 0.0
22/07:30am 9.6 5.1 6.0 78 1.6 NNE 19 24 10 13 1026.6 1026.6 0.0
22/07:00am 7.6 4.0 5.2 85 1.1 NE 13 19 7 10 1026.7 1026.7 0.0
22/06:30am 6.1 2.3 4.1 87 0.8 NE 13 17 7 9 1026.7 1026.7 0.0
22/06:00am 6.2 2.1 4.2 87 0.8 NE 15 20 8 11 1026.5 1026.5 0.0
22/05:30am 6.3 2.2 4.5 88 0.8 NE 15 19 8 10 1026.2 1026.2 0.0
22/05:00am 5.9 1.8 4.5 91 0.6 NE 15 17 8 9 1026.2 1026.2 0.0
22/04:30am 4.3 0.8 3.4 94 0.4 NE 11 13 6 7 1026.2 1026.2 0.0
22/04:00am 4.2 1.5 3.5 95 0.3 NE 7 9 4 5 1026.3 1026.3 0.0
22/03:30am 3.8 0.6 3.1 95 0.3 NE 9 11 5 6 1026.3 1026.3 0.0
22/03:00am 3.6 0.3 2.7 94 0.4 ENE 9 11 5 6 1026.4 1026.4 0.0
22/02:30am 4.0 1.2 3.1 94 0.4 ENE 7 9 4 5 1026.6 1026.6 0.0
22/02:00am 4.6 2.1 3.7 94 0.4 ENE 6 9 3 5 1027.1 1027.1 0.0
22/01:30am 4.9 2.8 4.0 94 0.4 ENE 4 6 2 3 1027.2 1027.2 0.0
22/01:00am 5.4 3.4 4.4 93 0.4 ENE 4 7 2 4 1027.3 1027.3 0.0
22/12:30am 5.9 4.4 4.9 93 0.4 E 2 9 1 5 1027.3 1027.3 0.0
22/12:00am 6.2 5.1 5.2 93 0.4 CALM 0 2 0 1 1027.4 1027.4 0.0
 
Date/Time
CST
Temp
°C
App
Temp
°C
Dew
Point
Rel
Hum
%
Delta-T
°C
Wind Press
QNH
hPa
Press
MSL
hPa
Rain
since 9 am
mm
Dir
 
Spd
km/h
Gust
km/h
Spd
kts
Gust
kts
21/11:30pm 6.3 4.8 5.1 92 0.5 E 2 4 1 2 1027.5 1027.5 0.0
21/11:00pm 6.1 4.2 4.9 92 0.5 E 4 6 2 3 1027.9 1027.9 0.0
21/10:30pm 6.0 3.7 4.8 92 0.5 SE 6 9 3 5 1028.1 1028.1 0.0
21/10:00pm 5.8 3.8 4.4 91 0.6 SE 4 6 2 3 1028.3 1028.3 0.0
21/09:30pm 6.0 4.0 4.3 89 0.7 SE 4 4 2 2 1028.6 1028.6 0.0
21/09:00pm 6.5 4.1 4.3 86 0.9 SE 6 6 3 3 1028.9 1028.9 0.0
21/08:30pm 8.1 6.1 6.1 87 0.9 SE 6 7 3 4 1028.9 1028.9 0.0
21/08:00pm 8.2 6.0 6.2 87 0.9 SSE 7 9 4 5 1029.0 1029.0 0.0
21/07:30pm 8.4 6.4 6.2 86 1.0 SSE 6 6 3 3 1029.0 1029.0 0.0
21/07:00pm 9.4 6.8 5.9 79 1.6 S 9 11 5 6 1028.9 1028.9 0.0
21/06:30pm 10.5 7.9 6.3 75 1.9 S 9 11 5 6 1028.8 1028.8 0.0
21/06:00pm 12.0 9.5 6.7 70 2.5 S 9 11 5 6 1028.6 1028.6 0.0
21/05:30pm 13.8 11.1 7.3 65 3.2 S 11 13 6 7 1028.7 1028.7 0.0
21/05:00pm 14.7 11.3 7.5 62 3.6 S 15 19 8 10 1028.6 1028.6 0.0
21/04:30pm 15.6 12.3 7.9 60 3.8 S 15 20 8 11 1028.6 1028.6 0.0
21/04:00pm 15.7 11.6 8.0 60 3.9 S 19 24 10 13 1028.5 1028.5 0.0
21/03:30pm 17.1 14.2 8.3 56 4.5 SSW 13 17 7 9 1028.4 1028.4 0.0
21/03:00pm 17.2 15.4 7.8 54 4.7 SSE 7 17 4 9 1028.8 1028.8 0.0
21/02:30pm 16.9 14.8 8.1 56 4.4 S 9 15 5 8 1028.9 1028.9 0.0
21/02:00pm 16.9 14.9 8.6 58 4.3 S 9 15 5 8 1029.3 1029.3 0.0
21/01:30pm 16.4 14.3 8.4 59 4.0 S 9 15 5 8 1029.9 1029.9 0.0
21/01:00pm 16.6 14.8 9.3 62 3.8 SSW 9 13 5 7 1030.3 1030.3 0.0
21/12:30pm 16.6 15.3 9.1 61 3.8 SSW 6 9 3 5 1030.9 1030.9 0.0
21/12:00pm 16.0 14.0 8.5 61 3.8 SSW 9 15 5 8 1031.2 1031.2 0.0
21/11:30am 15.3 13.2 8.3 63 3.5 S 9 15 5 8 1031.5 1031.5 0.0
21/11:00am 15.9 14.6 7.7 58 4.1 NNW 4 9 2 5 1031.7 1031.7 0.0
21/10:30am 15.8 13.9 7.6 58 4.1 NW 7 11 4 6 1032.0 1032.0 0.0
21/10:00am 15.3 13.8 8.3 63 3.5 NE 6 13 3 7 1032.2 1032.2 0.0
21/09:30am 13.7 11.8 7.5 66 3.0 NNE 7 11 4 6 1032.5 1032.5 0.0
21/09:00am 12.3 10.3 7.0 70 2.5 NNE 7 11 4 6 1032.4 1032.4 0.0
21/08:30am 10.9 8.7 6.1 72 2.2 NE 7 13 4 7 1032.1 1032.1 0.0
21/08:00am 9.1 5.7 5.8 80 1.5 NE 13 19 7 10 1031.8 1031.8 0.0

Other Formats:

Comma delimited format used in spreadsheet applications
http://www.bom.gov.au/fwo/IDS60801/IDS60801.95816.axf

JavaScript Object Notation format (JSON) in row-major order
http://www.bom.gov.au/fwo/IDS60801/IDS60801.95816.json